Time;durP1;ratioP1;P1;durP2;ratioP2;P2;SDS_P1;SDS_P2;PMS_P1;PMS_P2;Temp;Humidity;BMP_temperature;BMP_pressure;BME280_temperature;BME280_humidity;BME280_pressure;Samples;Min_cycle;Max_cycle;Signal;HPM_P1;HPM_P2
2019/07/10 00:00:18;;;;;;;5.4;2.2;;;;;;;15.42;62.45605;939.8706;;;;
2019/07/10 00:02:41;;;;;;;3.5;2.1;;;;;;;15.28;62.94336;939.783;;;;
2019/07/10 00:05:06;;;;;;;4.3;2.1;;;;;;;15.2;63.41699;939.7703;;;;
2019/07/10 00:07:32;;;;;;;5;1.9;;;;;;;15.04;63.3125;939.7495;;;;
2019/07/10 00:10:01;;;;;;;3.4;1.9;;;;;;;15.03;62.73438;939.764;;;;
2019/07/10 00:12:25;;;;;;;5.5;1.9;;;;;;;14.97;62.58691;939.7312;;;;
2019/07/10 00:14:48;;;;;;;3.2;1.8;;;;;;;15;63.05176;939.6813;;;;
2019/07/10 00:17:16;;;;;;;3.9;1.8;;;;;;;14.88;62.48242;939.6594;;;;
2019/07/10 00:19:42;;;;;;;5.5;1.9;;;;;;;14.7;62.60547;939.7057;;;;
2019/07/10 00:22:05;;;;;;;3.6;1.9;;;;;;;14.67;63.14453;939.7211;;;;
2019/07/10 00:24:30;;;;;;;4.8;1.7;;;;;;;14.63;63.03418;939.7853;;;;
2019/07/10 00:26:57;;;;;;;6.1;1.9;;;;;;;14.59;63.98438;939.8069;;;;
2019/07/10 00:29:22;;;;;;;4.7;1.8;;;;;;;14.68;63.08887;939.7715;;;;
2019/07/10 00:31:46;;;;;;;4;1.7;;;;;;;14.72;62.9541;939.8315;;;;
2019/07/10 00:34:15;;;;;;;4.7;1.9;;;;;;;14.85;62.78809;939.8392;;;;
2019/07/10 00:36:39;;;;;;;4.1;1.6;;;;;;;14.96;62.49316;939.8869;;;;
2019/07/10 00:39:02;;;;;;;6.1;1.7;;;;;;;14.85;62.43262;939.8384;;;;
2019/07/10 00:41:27;;;;;;;4.1;1.6;;;;;;;14.93;63.2041;939.8261;;;;
2019/07/10 00:43:59;;;;;;;3.3;1.5;;;;;;;14.81;62.64551;939.8511;;;;
2019/07/10 00:46:19;;;;;;;6.7;1.7;;;;;;;14.57;63.14063;939.8774;;;;
2019/07/10 00:48:45;;;;;;;4.1;1.8;;;;;;;14.53;62.96289;939.9031;;;;
2019/07/10 00:51:08;;;;;;;6.7;1.8;;;;;;;14.62;62.74512;939.8936;;;;
2019/07/10 00:53:35;;;;;;;4;1.8;;;;;;;14.68;62.83398;939.9816;;;;
2019/07/10 00:56:04;;;;;;;4.1;1.8;;;;;;;14.57;62.69141;939.916;;;;
2019/07/10 00:58:24;;;;;;;5;1.8;;;;;;;14.58;62.72656;939.9022;;;;
2019/07/10 01:00:51;;;;;;;4.2;1.7;;;;;;;14.51;62.95898;939.8928;;;;
2019/07/10 01:03:17;;;;;;;3.8;1.7;;;;;;;14.55;62.71191;939.9136;;;;
2019/07/10 01:05:45;;;;;;;3.4;1.5;;;;;;;14.71;62.44629;939.9005;;;;
2019/07/10 01:08:07;;;;;;;3.6;1.5;;;;;;;14.65;62.12695;939.9247;;;;
2019/07/10 01:10:32;;;;;;;2.3;1.4;;;;;;;14.66;61.29785;939.9111;;;;
2019/07/10 01:12:58;;;;;;;3.9;1.4;;;;;;;14.59;62.23438;939.9046;;;;
2019/07/10 01:15:24;;;;;;;3.8;1.6;;;;;;;14.68;61.85547;939.9639;;;;
2019/07/10 01:17:49;;;;;;;5.5;1.6;;;;;;;14.61;62.00488;939.9326;;;;
2019/07/10 01:20:16;;;;;;;3.6;1.5;;;;;;;14.68;61.93457;939.883;;;;
2019/07/10 01:22:41;;;;;;;2.6;1.2;;;;;;;14.75;60.99902;939.9267;;;;
2019/07/10 01:25:14;;;;;;;5.3;1.5;;;;;;;14.72;61.62988;939.9292;;;;
2019/07/10 01:27:34;;;;;;;4.3;1.5;;;;;;;14.63;61.1543;939.8759;;;;
2019/07/10 01:29:57;;;;;;;4.1;1.6;;;;;;;14.59;61.65625;939.8837;;;;
2019/07/10 01:32:22;;;;;;;3.1;1.4;;;;;;;14.7;61.0498;939.9109;;;;
2019/07/10 01:34:48;;;;;;;5.1;1.5;;;;;;;14.64;61.63965;939.8575;;;;
2019/07/10 01:37:12;;;;;;;5.5;1.4;;;;;;;14.5;62.19727;939.868;;;;
2019/07/10 01:39:41;;;;;;;3.7;1.6;;;;;;;14.48;62.63184;939.8569;;;;
2019/07/10 01:42:13;;;;;;;6.4;1.5;;;;;;;14.47;61.92676;939.8674;;;;
2019/07/10 01:44:31;;;;;;;4.8;1.5;;;;;;;14.43;61.4043;939.8455;;;;
2019/07/10 01:46:58;;;;;;;5.8;1.4;;;;;;;14.43;61.98047;939.8795;;;;
2019/07/10 01:49:25;;;;;;;1.6;1.3;;;;;;;14.45;61.71777;939.9075;;;;
2019/07/10 01:51:47;;;;;;;3.9;1.5;;;;;;;14.37;62.24805;939.9327;;;;
2019/07/10 01:54:17;;;;;;;5.2;1.8;;;;;;;14.26;63.52246;939.9097;;;;
2019/07/10 01:56:42;;;;;;;3.6;1.6;;;;;;;14.23;63.02148;939.9947;;;;
2019/07/10 01:59:03;;;;;;;5.2;1.7;;;;;;;14.28;62.43066;940.0442;;;;
2019/07/10 02:01:29;;;;;;;4.7;1.5;;;;;;;14.33;62.5752;939.9672;;;;
2019/07/10 02:03:54;;;;;;;3.2;1.6;;;;;;;14.27;62.55664;940.033;;;;
2019/07/10 02:06:19;;;;;;;4.6;1.5;;;;;;;14.25;62.94531;940.0267;;;;
2019/07/10 02:08:47;;;;;;;4.3;1.6;;;;;;;14.18;63.06152;940.1018;;;;
2019/07/10 02:11:10;;;;;;;3.5;1.4;;;;;;;14.18;63.30176;940.0425;;;;
2019/07/10 02:13:42;;;;;;;2.7;1.5;;;;;;;14.17;62.51855;939.9625;;;;
2019/07/10 02:16:01;;;;;;;3.7;1.5;;;;;;;14.23;62.51563;940.0075;;;;
2019/07/10 02:18:24;;;;;;;4.9;1.6;;;;;;;14.19;62.55566;940.0201;;;;
2019/07/10 02:20:51;;;;;;;6.3;1.7;;;;;;;14.21;62.75488;940.073;;;;
2019/07/10 02:23:19;;;;;;;5.1;1.6;;;;;;;14.28;62.91406;940.0193;;;;
2019/07/10 02:25:42;;;;;;;5.7;1.6;;;;;;;14.32;63.57715;939.9633;;;;
2019/07/10 02:28:10;;;;;;;4.6;1.5;;;;;;;14.37;62.26953;939.9928;;;;
2019/07/10 02:30:32;;;;;;;4.9;1.5;;;;;;;14.11;62.32617;939.9129;;;;
2019/07/10 02:32:56;;;;;;;4;1.5;;;;;;;14.37;62.13281;939.9278;;;;
2019/07/10 02:35:27;;;;;;;5.7;1.6;;;;;;;14.53;63.34277;939.9417;;;;
2019/07/10 02:37:51;;;;;;;7.3;1.5;;;;;;;14.5;63.70801;939.9914;;;;
2019/07/10 02:40:18;;;;;;;4.1;1.4;;;;;;;14.52;63.08691;939.9986;;;;
2019/07/10 02:42:45;;;;;;;4.3;1.5;;;;;;;14.38;62.49121;939.9311;;;;
2019/07/10 02:45:08;;;;;;;5.6;2;;;;;;;14.34;65.8252;939.9319;;;;
2019/07/10 02:47:32;;;;;;;3.7;1.8;;;;;;;14.24;64.40527;939.8697;;;;
2019/07/10 02:50:00;;;;;;;4.9;1.6;;;;;;;14.02;64.09668;939.897;;;;
2019/07/10 02:52:25;;;;;;;4.7;1.6;;;;;;;13.93;64.53223;939.8808;;;;
2019/07/10 02:54:47;;;;;;;3.7;1.5;;;;;;;13.91;64.66797;939.8824;;;;
2019/07/10 02:57:13;;;;;;;3.8;1.4;;;;;;;13.81;64.88281;939.8758;;;;
2019/07/10 02:59:39;;;;;;;3.3;1.4;;;;;;;13.74;64.87207;939.8454;;;;
2019/07/10 03:02:04;;;;;;;3.9;1.6;;;;;;;13.33;67.87988;939.9126;;;;
2019/07/10 03:04:31;;;;;;;4.6;1.6;;;;;;;13.42;67.53613;939.8699;;;;
2019/07/10 03:06:54;;;;;;;3.3;1.6;;;;;;;13.32;66.75098;939.8414;;;;
2019/07/10 03:09:26;;;;;;;3.5;1.5;;;;;;;13.23;67.29004;939.8764;;;;
2019/07/10 03:11:48;;;;;;;4.8;1.8;;;;;;;13.17;67.32617;939.9117;;;;
2019/07/10 03:14:13;;;;;;;3.5;1.6;;;;;;;13.17;67.77539;939.9197;;;;
2019/07/10 03:16:43;;;;;;;5.2;2.1;;;;;;;13.02;70.26563;939.9146;;;;
2019/07/10 03:19:03;;;;;;;3.7;1.8;;;;;;;12.99;69.52441;939.9302;;;;
2019/07/10 03:21:28;;;;;;;6.2;2.4;;;;;;;12.67;71.78125;939.9832;;;;
2019/07/10 03:23:54;;;;;;;4.8;2;;;;;;;12.47;73.21582;939.9308;;;;
2019/07/10 03:26:25;;;;;;;5.5;2.2;;;;;;;12.35;73.79199;940.0489;;;;
2019/07/10 03:28:44;;;;;;;6.2;2;;;;;;;12.32;72.76563;940.0176;;;;
2019/07/10 03:31:11;;;;;;;6.1;2;;;;;;;12.3;72.87695;940.0622;;;;
2019/07/10 03:33:36;;;;;;;5;2;;;;;;;12.35;73.22949;940.0745;;;;
2019/07/10 03:36:02;;;;;;;4.8;1.9;;;;;;;12.34;72.59766;940.0369;;;;
2019/07/10 03:38:27;;;;;;;6.1;2.2;;;;;;;12.35;73.11523;940.096;;;;
2019/07/10 03:40:52;;;;;;;7.6;2.3;;;;;;;12.23;74.12695;940.1074;;;;
2019/07/10 03:43:16;;;;;;;5.4;2.1;;;;;;;12.26;73.7207;940.1211;;;;
2019/07/10 03:45:46;;;;;;;9.4;2.5;;;;;;;12.29;74.20703;940.1819;;;;
2019/07/10 03:48:10;;;;;;;5;2.5;;;;;;;12.34;73.76758;940.1472;;;;
2019/07/10 03:50:33;;;;;;;5.7;2.5;;;;;;;12.35;73.48242;940.1511;;;;
2019/07/10 03:53:03;;;;;;;6.2;2.6;;;;;;;12.23;74.27637;940.1713;;;;
2019/07/10 03:55:29;;;;;;;6.4;2.3;;;;;;;12.16;74.46973;940.1905;;;;
2019/07/10 03:57:53;;;;;;;4.9;2.2;;;;;;;12.22;73.47266;940.1808;;;;
2019/07/10 04:02:34;;;;;;;5.3;2.1;;;;;;;12.4;72.52637;940.1635;;;;
2019/07/10 04:04:58;;;;;;;4.5;2.2;;;;;;;12.44;72.38477;940.2957;;;;
2019/07/10 04:07:21;;;;;;;5.6;2.2;;;;;;;12.63;72.65723;940.3369;;;;
2019/07/10 04:09:45;;;;;;;7.3;1.9;;;;;;;12.58;72.49902;940.2988;;;;
2019/07/10 04:12:13;;;;;;;4.8;2.2;;;;;;;12.76;72.09375;940.3367;;;;
2019/07/10 04:14:39;;;;;;;3.7;2;;;;;;;12.73;71.89551;940.3558;;;;
2019/07/10 04:17:05;;;;;;;2.8;2;;;;;;;12.78;72.46387;940.3431;;;;
2019/07/10 04:19:26;;;;;;;7;2;;;;;;;12.81;71.96484;940.3864;;;;
2019/07/10 04:21:54;;;;;;;4.9;2.1;;;;;;;12.83;71.31348;940.3892;;;;
2019/07/10 04:24:17;;;;;;;4.7;2.1;;;;;;;12.79;70.94043;940.3887;;;;
2019/07/10 04:26:43;;;;;;;4.7;2.6;;;;;;;12.96;72.51855;940.4057;;;;
2019/07/10 04:29:09;;;;;;;8.2;3.3;;;;;;;12.82;74.96387;940.4626;;;;
2019/07/10 04:31:32;;;;;;;4.4;2.5;;;;;;;12.73;73.67383;940.3773;;;;
2019/07/10 04:34:02;;;;;;;5.2;2.7;;;;;;;12.96;73.1709;940.3976;;;;
2019/07/10 04:36:27;;;;;;;4.8;2.4;;;;;;;12.82;73.61914;940.378;;;;
2019/07/10 04:38:55;;;;;;;5.9;2.4;;;;;;;12.71;74.53223;940.358;;;;
2019/07/10 04:41:18;;;;;;;5.2;2.2;;;;;;;12.76;73.62012;940.379;;;;
2019/07/10 04:43:45;;;;;;;5.5;2.6;;;;;;;12.68;74.48926;940.3147;;;;
2019/07/10 04:46:12;;;;;;;5.2;2.3;;;;;;;12.71;74.16309;940.2902;;;;
2019/07/10 04:48:38;;;;;;;6.9;2.1;;;;;;;12.67;74.82227;940.2476;;;;
2019/07/10 04:51:07;;;;;;;5.2;2.4;;;;;;;12.69;74.52539;940.2756;;;;
2019/07/10 04:53:32;;;;;;;7.3;2.3;;;;;;;12.72;73.56934;940.2806;;;;
2019/07/10 04:55:55;;;;;;;7.4;2.3;;;;;;;12.67;73.47852;940.2819;;;;
2019/07/10 04:58:20;;;;;;;7.1;2.3;;;;;;;12.66;74.49902;940.21;;;;
2019/07/10 05:00:48;;;;;;;6.7;2.8;;;;;;;12.8;75.28027;940.2081;;;;
2019/07/10 05:03:11;;;;;;;5.4;2.2;;;;;;;12.72;74.06152;940.183;;;;
2019/07/10 05:05:38;;;;;;;6.3;2.2;;;;;;;12.7;75.58398;940.2533;;;;
2019/07/10 05:08:02;;;;;;;6.1;2.2;;;;;;;12.6;75.74902;940.199;;;;
2019/07/10 05:10:29;;;;;;;7.4;2.2;;;;;;;12.89;76.53711;940.272;;;;
2019/07/10 05:12:56;;;;;;;4.8;1.7;;;;;;;13.7;72.77832;940.2336;;;;
2019/07/10 05:15:21;;;;;;;5.6;1.3;;;;;;;14.61;70.32715;940.2187;;;;
2019/07/10 05:17:43;;;;;;;5.5;1.5;;;;;;;15.31;67.33301;940.1398;;;;
2019/07/10 05:20:07;;;;;;;5.2;1.5;;;;;;;15.43;65.88574;940.1563;;;;
2019/07/10 05:23:00;;;;;;;2.5;1.4;;;;;;;15.86;64.95703;940.1389;;;;
2019/07/10 05:25:14;;;;;;;5.1;1.6;;;;;;;16.05;64.99707;940.0918;;;;
2019/07/10 05:30:23;;;;;;;4.9;1.6;;;;;;;17.8;57.55957;940.0092;;;;
2019/07/10 05:32:49;;;;;;;6;1.7;;;;;;;17.88;58.42871;940.043;;;;
2019/07/10 05:35:24;;;;;;;3.5;1.6;;;;;;;18.05;56.9873;939.9752;;;;
2019/07/10 05:37:52;;;;;;;5.1;1.6;;;;;;;18.3;55.60254;939.9486;;;;
2019/07/10 05:40:16;;;;;;;6.9;1.9;;;;;;;18.66;55.53125;940.0131;;;;
2019/07/10 05:42:43;;;;;;;4.8;1.7;;;;;;;18.8;54.62988;939.9871;;;;
2019/07/10 05:45:09;;;;;;;6.2;1.5;;;;;;;19.11;53.94629;939.9741;;;;
2019/07/10 05:47:37;;;;;;;6.5;1.5;;;;;;;19.3;52.18652;939.985;;;;
2019/07/10 05:50:00;;;;;;;6.5;1.6;;;;;;;19.1;53.91113;940.0397;;;;
2019/07/10 05:52:24;;;;;;;3.4;1.5;;;;;;;19.59;51.55762;940.0301;;;;
2019/07/10 05:54:51;;;;;;;3.8;1.3;;;;;;;19.96;49.26758;940.0043;;;;
2019/07/10 05:57:18;;;;;;;4.2;1.5;;;;;;;20.33;48.11719;940.0387;;;;
2019/07/10 05:59:46;;;;;;;2.1;1.2;;;;;;;20.87;46.54004;939.998;;;;
2019/07/10 06:02:14;;;;;;;3.1;1.2;;;;;;;20.32;46.16602;939.9581;;;;
2019/07/10 06:04:41;;;;;;;4.9;1.1;;;;;;;21.14;45.30371;940.0492;;;;
2019/07/10 06:07:05;;;;;;;3.9;1.1;;;;;;;20.89;46.4834;940.0776;;;;
2019/07/10 06:09:32;;;;;;;2.7;1.1;;;;;;;21.23;42.37793;939.9594;;;;
2019/07/10 06:11:55;;;;;;;4.6;1.3;;;;;;;22.31;42.13965;940.0203;;;;
2019/07/10 06:14:24;;;;;;;4.3;1;;;;;;;22.21;38.40137;940.0208;;;;
2019/07/10 06:16:47;;;;;;;3.6;1;;;;;;;22.41;42.7373;939.9974;;;;
2019/07/10 06:19:12;;;;;;;3.1;1.1;;;;;;;23.11;38.31543;939.9788;;;;
2019/07/10 06:21:37;;;;;;;4.9;1.3;;;;;;;22.58;40.44043;939.9922;;;;
2019/07/10 06:24:02;;;;;;;2.7;1.1;;;;;;;22.41;40.06152;939.9635;;;;
2019/07/10 06:26:30;;;;;;;2.7;1;;;;;;;23.25;37.61035;939.9933;;;;
2019/07/10 06:28:55;;;;;;;3.8;1.2;;;;;;;22.46;39.99609;939.9044;;;;
2019/07/10 06:31:23;;;;;;;3.6;1.1;;;;;;;22.01;41.00977;939.9061;;;;
2019/07/10 06:33:50;;;;;;;7;1.3;;;;;;;21.54;43.16797;939.9654;;;;
2019/07/10 06:36:17;;;;;;;3.2;1;;;;;;;22.66;40.92969;939.9417;;;;
2019/07/10 06:38:38;;;;;;;4.5;1.1;;;;;;;23.52;38.72754;939.9931;;;;
2019/07/10 06:41:04;;;;;;;4.7;1.2;;;;;;;23.38;39.59668;940.0217;;;;
2019/07/10 06:43:29;;;;;;;4.2;1.1;;;;;;;24.26;37.90723;939.9919;;;;
2019/07/10 06:45:57;;;;;;;3.8;1.2;;;;;;;24.31;38.60645;940.0416;;;;
2019/07/10 06:48:28;;;;;;;2.5;0.9;;;;;;;24.41;38.2627;940.0569;;;;
2019/07/10 06:50:45;;;;;;;3.3;1;;;;;;;24.56;37.28516;940.1077;;;;
2019/07/10 06:53:11;;;;;;;3.8;1;;;;;;;24.83;37.61328;940.0993;;;;
2019/07/10 06:55:35;;;;;;;4.5;1.1;;;;;;;24.87;36.30859;940.0406;;;;
2019/07/10 06:58:04;;;;;;;2.2;1;;;;;;;24.83;36.50488;940.0293;;;;
2019/07/10 07:00:31;;;;;;;4;1.1;;;;;;;24.98;37.68555;940.0846;;;;
2019/07/10 07:02:58;;;;;;;2.2;1.1;;;;;;;25.37;36.34863;940.1102;;;;
2019/07/10 07:05:24;;;;;;;3.6;0.9;;;;;;;26.27;34.32715;940.0258;;;;
2019/07/10 07:07:47;;;;;;;2.9;1.1;;;;;;;25.68;35.2041;940.1116;;;;
2019/07/10 07:10:13;;;;;;;5.5;1.3;;;;;;;25.78;35.61328;940.1003;;;;
2019/07/10 07:12:40;;;;;;;3.7;1.2;;;;;;;24.75;35.42578;940.0937;;;;
2019/07/10 07:15:03;;;;;;;11;2.8;;;;;;;23.06;39.49805;940.1674;;;;
2019/07/10 07:17:28;;;;;;;3.2;1.3;;;;;;;21.93;41.69336;940.1811;;;;
2019/07/10 07:19:53;;;;;;;5.2;1.2;;;;;;;21.44;41.9873;940.1774;;;;
2019/07/10 07:22:19;;;;;;;4.2;1.2;;;;;;;20.78;44.15723;940.1951;;;;
2019/07/10 07:24:45;;;;;;;5.1;1.1;;;;;;;20.24;44.69922;940.2746;;;;
2019/07/10 07:27:11;;;;;;;3.1;1.2;;;;;;;20.12;44.83789;940.2992;;;;
2019/07/10 07:29:42;;;;;;;4.7;1.5;;;;;;;19.96;46.67773;940.3236;;;;
2019/07/10 07:32:05;;;;;;;2.8;1.1;;;;;;;19.85;46.92285;940.3375;;;;
2019/07/10 07:34:28;;;;;;;4.4;1.3;;;;;;;19.5;45.89453;940.304;;;;
2019/07/10 07:36:52;;;;;;;4.1;1.4;;;;;;;19.53;46.03711;940.2921;;;;
2019/07/10 07:39:20;;;;;;;3.2;1.3;;;;;;;19.51;45.16113;940.2125;;;;
2019/07/10 07:41:47;;;;;;;3.9;1.4;;;;;;;19.4;47.51563;940.2299;;;;
2019/07/10 07:44:08;;;;;;;4.8;1.4;;;;;;;19.3;47.71387;940.2305;;;;
2019/07/10 07:46:34;;;;;;;5.7;1.3;;;;;;;19.1;47.30859;940.2722;;;;
2019/07/10 07:49:06;;;;;;;3.9;1.2;;;;;;;18.78;47.44824;940.1916;;;;
2019/07/10 07:51:30;;;;;;;3.4;1.4;;;;;;;18.65;51.4707;940.169;;;;
2019/07/10 07:53:55;;;;;;;4.8;1.6;;;;;;;18.67;48.71582;940.188;;;;
2019/07/10 07:56:24;;;;;;;3.2;1.3;;;;;;;18.37;48.25293;940.1296;;;;
2019/07/10 07:58:53;;;;;;;31.2;2.9;;;;;;;19.2;47.20215;940.1265;;;;
2019/07/10 08:01:19;;;;;;;5.6;1.3;;;;;;;20.38;44.96973;940.0884;;;;
2019/07/10 08:03:48;;;;;;;4.4;1.2;;;;;;;20.71;45.50488;940.1236;;;;
2019/07/10 08:06:19;;;;;;;4;1.2;;;;;;;21.54;43.82324;940.0991;;;;
2019/07/10 08:08:42;;;;;;;5;1.4;;;;;;;22.23;41.90918;940.106;;;;
2019/07/10 08:11:07;;;;;;;4;1.3;;;;;;;23.29;40.02344;940.0999;;;;
2019/07/10 08:13:32;;;;;;;3.7;1.2;;;;;;;24.73;38.52539;940.0789;;;;
2019/07/10 08:16:01;;;;;;;6.8;1.3;;;;;;;25.39;36.40918;940.0204;;;;
2019/07/10 08:18:27;;;;;;;3.7;1.2;;;;;;;25.78;35.66113;940.0441;;;;
2019/07/10 08:20:50;;;;;;;3.8;1.2;;;;;;;26.56;34.34961;940.0673;;;;
2019/07/10 08:23:15;;;;;;;5;1.2;;;;;;;27.05;34.65918;939.9705;;;;
2019/07/10 08:25:39;;;;;;;5;1.3;;;;;;;27.32;31.92871;939.9924;;;;
2019/07/10 08:28:08;;;;;;;4.2;1.2;;;;;;;27.62;32.44824;939.967;;;;
2019/07/10 08:30:33;;;;;;;5.4;1.2;;;;;;;27.88;32.49121;939.9955;;;;
2019/07/10 08:32:59;;;;;;;3.5;1.2;;;;;;;26.86;33.05762;939.991;;;;
2019/07/10 08:35:29;;;;;;;3.2;1.2;;;;;;;27.36;32.63184;939.9549;;;;
2019/07/10 08:37:49;;;;;;;2.9;1.2;;;;;;;27.47;32.65137;939.9825;;;;
2019/07/10 08:40:14;;;;;;;2.6;1.3;;;;;;;28.07;30.84082;940.0524;;;;
2019/07/10 08:42:39;;;;;;;3.7;1.2;;;;;;;27.6;32.41211;939.9866;;;;
2019/07/10 08:45:05;;;;;;;4.6;1.1;;;;;;;27.49;32.89063;939.9697;;;;
2019/07/10 08:47:29;;;;;;;3.8;1.1;;;;;;;27.97;30.7168;939.9361;;;;
2019/07/10 08:49:56;;;;;;;2.8;1.2;;;;;;;28.07;31.66113;939.9647;;;;
2019/07/10 08:52:19;;;;;;;4.5;1.2;;;;;;;28.19;31.38477;939.9539;;;;
2019/07/10 08:54:47;;;;;;;3.3;1.1;;;;;;;28.09;30.9502;939.86;;;;
2019/07/10 08:57:13;;;;;;;3.8;1.2;;;;;;;27.84;32.02539;939.8876;;;;
2019/07/10 08:59:35;;;;;;;5.8;1.2;;;;;;;27.84;31.68066;939.9492;;;;
2019/07/10 09:02:01;;;;;;;3.1;1.2;;;;;;;27.5;32.08398;939.9777;;;;
2019/07/10 09:04:29;;;;;;;4.8;1.1;;;;;;;27.43;33.27734;940.0306;;;;
2019/07/10 09:06:55;;;;;;;3.3;1.2;;;;;;;27.49;31.09863;939.865;;;;
2019/07/10 09:09:18;;;;;;;3;1.1;;;;;;;26.91;32.63477;939.9473;;;;
2019/07/10 09:11:42;;;;;;;3.4;1.2;;;;;;;26.91;33.61816;939.9211;;;;
2019/07/10 09:14:08;;;;;;;2;1;;;;;;;26.35;34.33398;939.9869;;;;
2019/07/10 09:16:35;;;;;;;3.2;1.2;;;;;;;26.04;35.59863;939.9264;;;;
2019/07/10 09:18:59;;;;;;;4.3;1.5;;;;;;;25.69;35.07422;939.9447;;;;
2019/07/10 09:21:22;;;;;;;5.6;1.5;;;;;;;25.2;37.97656;939.9266;;;;
2019/07/10 09:23:46;;;;;;;4.8;1.4;;;;;;;25.16;37.52344;939.8853;;;;
2019/07/10 09:26:12;;;;;;;6.8;1.6;;;;;;;24.84;38.67578;939.9109;;;;
2019/07/10 09:28:38;;;;;;;4.8;1.6;;;;;;;24.52;38.74316;939.8539;;;;
2019/07/10 09:31:02;;;;;;;3.3;1.4;;;;;;;24.66;38.55469;939.8989;;;;
2019/07/10 09:33:27;;;;;;;2.9;1.3;;;;;;;24.67;38.88574;939.9056;;;;
2019/07/10 09:35:59;;;;;;;4.6;1.5;;;;;;;23.87;39.99316;939.9052;;;;
2019/07/10 09:38:19;;;;;;;8.8;2.1;;;;;;;23.59;41.34375;939.8546;;;;
2019/07/10 09:40:42;;;;;;;5.3;1.8;;;;;;;23.8;39.53906;939.8979;;;;
2019/07/10 09:43:08;;;;;;;4.9;1.7;;;;;;;23.73;41.0166;939.8378;;;;
2019/07/10 09:45:35;;;;;;;5;1.9;;;;;;;23.22;39.8877;939.8805;;;;
2019/07/10 09:47:58;;;;;;;6.1;1.7;;;;;;;23.16;41.35059;939.8851;;;;
2019/07/10 09:50:23;;;;;;;4.7;1.8;;;;;;;22.8;42.00977;939.8444;;;;
2019/07/10 09:52:48;;;;;;;3.9;1.7;;;;;;;22.99;42.61523;939.8348;;;;
2019/07/10 09:55:13;;;;;;;5;1.6;;;;;;;23.04;44.05371;939.8586;;;;
2019/07/10 09:57:39;;;;;;;3.1;1.7;;;;;;;22.68;42.76172;939.9177;;;;
2019/07/10 10:00:04;;;;;;;5.2;1.7;;;;;;;23.06;43.82129;939.8253;;;;
2019/07/10 10:02:30;;;;;;;4.3;1.6;;;;;;;23.09;41.0166;939.838;;;;
2019/07/10 10:05:00;;;;;;;5.8;1.6;;;;;;;23.12;42.62793;939.7997;;;;
2019/07/10 10:07:22;;;;;;;3.7;1.5;;;;;;;23.53;42.86719;939.767;;;;
2019/07/10 10:09:46;;;;;;;4.8;1.7;;;;;;;23.83;39.77734;939.6895;;;;
2019/07/10 10:12:14;;;;;;;4.3;1.7;;;;;;;23.63;41.68848;939.7662;;;;
2019/07/10 10:14:38;;;;;;;4.8;1.7;;;;;;;23.62;41.61816;939.836;;;;
2019/07/10 10:17:06;;;;;;;4.1;1.5;;;;;;;23.63;39.57129;939.7402;;;;
2019/07/10 10:19:28;;;;;;;4.6;1.6;;;;;;;23.29;42.38574;939.7759;;;;
2019/07/10 10:21:55;;;;;;;4.7;1.6;;;;;;;23.35;40.0752;939.7841;;;;
2019/07/10 10:24:19;;;;;;;4.1;1.5;;;;;;;23.25;43.51074;939.7503;;;;
2019/07/10 10:26:47;;;;;;;3.8;1.6;;;;;;;23.47;42.00391;939.7628;;;;
2019/07/10 10:29:09;;;;;;;6.5;1.9;;;;;;;23.57;41.87207;939.7437;;;;
2019/07/10 10:31:34;;;;;;;7.5;1.6;;;;;;;23.19;38.70996;939.6898;;;;
2019/07/10 10:34:02;;;;;;;3.1;1.4;;;;;;;23.45;40.8252;939.696;;;;
2019/07/10 10:36:25;;;;;;;3.6;1.3;;;;;;;23.33;40.47266;939.7314;;;;
2019/07/10 10:38:48;;;;;;;4.1;1.3;;;;;;;23.45;41.4248;939.6361;;;;
2019/07/10 10:41:14;;;;;;;4.2;1.4;;;;;;;23.32;40.69629;939.6884;;;;
2019/07/10 10:43:43;;;;;;;3.1;1.4;;;;;;;23.43;41.43457;939.6343;;;;
2019/07/10 10:46:05;;;;;;;14.7;2;;;;;;;23.55;41.74023;939.5555;;;;
2019/07/10 10:48:30;;;;;;;6.1;1.5;;;;;;;23.56;43.07031;939.6367;;;;
2019/07/10 10:50:54;;;;;;;4;1.4;;;;;;;23.48;42.13281;939.6186;;;;
2019/07/10 10:53:24;;;;;;;5.5;1.3;;;;;;;23.66;41.62109;939.5757;;;;
2019/07/10 10:55:50;;;;;;;3.5;1.4;;;;;;;23.57;40.47266;939.4925;;;;
2019/07/10 10:58:16;;;;;;;4.2;1.3;;;;;;;23.72;41.05078;939.6008;;;;
2019/07/10 11:00:41;;;;;;;4.5;1.4;;;;;;;23.67;40.15137;939.4875;;;;
2019/07/10 11:03:10;;;;;;;4.1;1.5;;;;;;;23.69;39.89453;939.4931;;;;
2019/07/10 11:05:37;;;;;;;5.2;1.4;;;;;;;23.79;40.08105;939.4906;;;;
2019/07/10 11:08:05;;;;;;;5.3;1.5;;;;;;;23.76;39.19531;939.4391;;;;
2019/07/10 11:10:29;;;;;;;2.5;1.3;;;;;;;24.04;41.1377;939.4774;;;;
2019/07/10 11:12:53;;;;;;;4;1.3;;;;;;;23.86;39.42773;939.4639;;;;
2019/07/10 11:15:19;;;;;;;4.5;1.4;;;;;;;23.21;40.87402;939.4836;;;;
2019/07/10 11:17:49;;;;;;;4.8;1.5;;;;;;;23.61;39.75684;939.4961;;;;
2019/07/10 11:20:10;;;;;;;3.4;1.4;;;;;;;23.41;40.83398;939.4542;;;;
2019/07/10 11:22:41;;;;;;;3.7;1.3;;;;;;;23.4;40.82129;939.4083;;;;
2019/07/10 11:25:01;;;;;;;4.9;1.5;;;;;;;23.38;40.55957;939.3596;;;;
2019/07/10 11:27:29;;;;;;;7.1;1.6;;;;;;;23.46;43.2959;939.3347;;;;
2019/07/10 11:29:52;;;;;;;2.8;1.6;;;;;;;23.56;41.56543;939.3195;;;;
2019/07/10 11:32:19;;;;;;;4.8;1.5;;;;;;;23.87;42.65332;939.2755;;;;
2019/07/10 11:34:43;;;;;;;2.8;1.6;;;;;;;23.85;41.66309;939.3049;;;;
2019/07/10 11:37:18;;;;;;;6.5;1.3;;;;;;;23.67;41.22266;939.2403;;;;
2019/07/10 11:39:35;;;;;;;4.7;1.3;;;;;;;23.59;41.3916;939.2381;;;;
2019/07/10 11:41:59;;;;;;;3.5;1.5;;;;;;;23.75;38.42969;939.293;;;;
2019/07/10 11:44:25;;;;;;;4.1;1.6;;;;;;;23.67;41.74023;939.2833;;;;
2019/07/10 11:46:50;;;;;;;4.7;1.4;;;;;;;23.84;38.97852;939.315;;;;
2019/07/10 11:49:18;;;;;;;2.7;1.4;;;;;;;23.85;41.27344;939.323;;;;
2019/07/10 11:51:43;;;;;;;4.8;1.7;;;;;;;23.69;40.35352;939.2279;;;;
2019/07/10 11:54:07;;;;;;;6.3;1.7;;;;;;;23.34;41.01563;939.2181;;;;
2019/07/10 11:56:32;;;;;;;3.9;1.5;;;;;;;23.79;40.97559;939.2303;;;;
2019/07/10 11:59:00;;;;;;;7.1;1.5;;;;;;;23.82;38.81152;939.2048;;;;
2019/07/10 12:01:23;;;;;;;6.8;1.6;;;;;;;23.91;40.70313;939.1747;;;;
2019/07/10 12:03:47;;;;;;;5.1;1.7;;;;;;;23.79;41.18555;939.2145;;;;
2019/07/10 12:06:13;;;;;;;8.8;1.8;;;;;;;23.77;43.08008;939.1726;;;;
2019/07/10 12:08:37;;;;;;;2.8;1.5;;;;;;;23.83;41.25977;939.212;;;;
2019/07/10 12:11:03;;;;;;;3.7;1.4;;;;;;;24.05;39.9502;939.0937;;;;
2019/07/10 12:13:28;;;;;;;2.8;1.4;;;;;;;24.03;38.46582;939.1791;;;;
2019/07/10 12:15:53;;;;;;;4.8;1.3;;;;;;;23.97;39.64941;939.1918;;;;
2019/07/10 12:18:26;;;;;;;12.9;1.7;;;;;;;24.41;39.22852;939.14;;;;
2019/07/10 12:20:44;;;;;;;4.7;1.5;;;;;;;24.65;39.88574;939.1052;;;;
2019/07/10 12:23:10;;;;;;;2.9;1.3;;;;;;;24.31;39.92578;939.0908;;;;
2019/07/10 12:25:34;;;;;;;3.3;1.4;;;;;;;24.49;39.64746;939.1379;;;;
2019/07/10 12:28:02;;;;;;;3.1;1.4;;;;;;;24.24;39.7793;939.1086;;;;
2019/07/10 12:30:27;;;;;;;4.2;1.4;;;;;;;24.27;38.30957;939.0951;;;;
2019/07/10 12:32:53;;;;;;;4;1.4;;;;;;;24.35;38.88184;939.1191;;;;
2019/07/10 12:35:20;;;;;;;3.2;1.5;;;;;;;24.12;41.12305;939.1344;;;;
2019/07/10 12:37:44;;;;;;;5.4;1.5;;;;;;;24.13;40.92383;939.0773;;;;
2019/07/10 12:40:10;;;;;;;3.7;1.5;;;;;;;24.22;40.0127;939.0897;;;;
2019/07/10 12:42:34;;;;;;;3.7;1.5;;;;;;;24.43;38.79395;939.0769;;;;
2019/07/10 12:45:02;;;;;;;5.5;1.5;;;;;;;24.34;39.19922;938.9952;;;;
2019/07/10 12:47:26;;;;;;;3;1.4;;;;;;;24.1;40.66113;938.9997;;;;
2019/07/10 12:49:50;;;;;;;5.8;1.4;;;;;;;24.15;41.7373;939.092;;;;
2019/07/10 12:52:14;;;;;;;5.4;1.5;;;;;;;24.44;40.93945;938.9936;;;;
2019/07/10 12:54:39;;;;;;;4.1;1.3;;;;;;;24.31;39.97363;939.0908;;;;
2019/07/10 12:57:07;;;;;;;4.9;1.4;;;;;;;24.26;39.3916;939.014;;;;
2019/07/10 12:59:30;;;;;;;6.8;1.8;;;;;;;24.36;40.26172;939.0908;;;;
2019/07/10 13:01:56;;;;;;;5;1.4;;;;;;;24.37;41.11035;939.0545;;;;
2019/07/10 13:04:23;;;;;;;4.2;1.3;;;;;;;24.34;41.10742;939.0161;;;;
2019/07/10 13:06:48;;;;;;;3.7;1.4;;;;;;;24.3;40.66797;939.0308;;;;
2019/07/10 13:09:10;;;;;;;4.1;1.4;;;;;;;23.82;41.08301;939.0097;;;;
2019/07/10 13:11:36;;;;;;;4.7;1.5;;;;;;;23.96;43.23828;938.9586;;;;
2019/07/10 13:14:00;;;;;;;4.4;1.3;;;;;;;24.23;41.45117;938.9366;;;;
2019/07/10 13:16:30;;;;;;;5;1.3;;;;;;;24.11;40.97949;938.9584;;;;
2019/07/10 13:18:52;;;;;;;2.9;1.3;;;;;;;24.29;38.94629;938.9369;;;;
2019/07/10 13:21:17;;;;;;;3.1;1.4;;;;;;;24.12;41.05176;938.9533;;;;
2019/07/10 13:23:48;;;;;;;3.3;1.5;;;;;;;24.08;41.26074;938.9669;;;;
2019/07/10 13:26:12;;;;;;;5.9;1.4;;;;;;;23.96;40.24805;938.9117;;;;
2019/07/10 13:28:38;;;;;;;3.2;1.3;;;;;;;24.11;38.50684;938.9374;;;;
2019/07/10 13:31:04;;;;;;;3.2;1.3;;;;;;;24.17;39.25391;938.9233;;;;
2019/07/10 13:33:33;;;;;;;3.8;1.2;;;;;;;24.23;41.1084;938.9023;;;;
2019/07/10 13:35:52;;;;;;;3.3;1.4;;;;;;;23.97;39.51953;938.8403;;;;
2019/07/10 13:38:18;;;;;;;2.9;1.6;;;;;;;23.56;42.57715;938.8173;;;;
2019/07/10 13:40:45;;;;;;;3.6;1.3;;;;;;;23.72;41.94434;938.8903;;;;
2019/07/10 13:43:10;;;;;;;3.9;1.3;;;;;;;23.83;38.94141;938.8306;;;;
2019/07/10 13:45:33;;;;;;;2.9;1.4;;;;;;;23.94;40.91797;938.7487;;;;
2019/07/10 13:47:59;;;;;;;5.5;1.4;;;;;;;23.71;42.34375;938.7782;;;;
2019/07/10 13:50:31;;;;;;;2.7;1.3;;;;;;;23.53;40.08008;938.7043;;;;
2019/07/10 13:52:49;;;;;;;3.2;1.2;;;;;;;23.53;40.31641;938.7344;;;;
2019/07/10 13:55:14;;;;;;;3.4;1.4;;;;;;;23.55;42.02246;938.7321;;;;
2019/07/10 13:57:40;;;;;;;4;1.2;;;;;;;23.63;39.73633;938.6956;;;;
2019/07/10 14:00:09;;;;;;;3.7;1.3;;;;;;;23.46;41.46191;938.6064;;;;
2019/07/10 14:02:35;;;;;;;2.3;1.2;;;;;;;23.44;40.79004;938.7347;;;;
2019/07/10 14:05:03;;;;;;;5.6;1.2;;;;;;;23.11;40.93555;938.666;;;;
2019/07/10 14:07:30;;;;;;;2.9;1.2;;;;;;;23.06;41.40137;938.7156;;;;
2019/07/10 14:09:52;;;;;;;3.7;1.3;;;;;;;22.93;41.33008;938.626;;;;
2019/07/10 14:12:26;;;;;;;5.4;1.3;;;;;;;23.03;43.59473;938.617;;;;
2019/07/10 14:14:45;;;;;;;3.2;1.3;;;;;;;23.12;41.05273;938.5778;;;;
2019/07/10 14:17:10;;;;;;;4.2;1.4;;;;;;;22.85;42.59082;938.642;;;;